sensor_id;sensor_type;location;lat;lon;timestamp;P1;durP1;ratioP1;P2;durP2;ratioP2
67762;SDS011;54566;52.022;5.582;2022-10-24T00:01:52;14.68;;;3.00;;
67762;SDS011;54566;52.022;5.582;2022-10-24T00:04:18;12.60;;;3.33;;
67762;SDS011;54566;52.022;5.582;2022-10-24T00:06:44;8.07;;;3.10;;
67762;SDS011;54566;52.022;5.582;2022-10-24T00:09:10;8.27;;;3.15;;
67762;SDS011;54566;52.022;5.582;2022-10-24T00:11:36;11.18;;;3.25;;
67762;SDS011;54566;52.022;5.582;2022-10-24T00:14:03;11.25;;;3.50;;
67762;SDS011;54566;52.022;5.582;2022-10-24T00:16:29;11.00;;;3.00;;
67762;SDS011;54566;52.022;5.582;2022-10-24T00:18:55;12.48;;;3.17;;
67762;SDS011;54566;52.022;5.582;2022-10-24T00:21:23;6.25;;;2.75;;
67762;SDS011;54566;52.022;5.582;2022-10-24T00:23:49;8.75;;;3.00;;
67762;SDS011;54566;52.022;5.582;2022-10-24T00:26:15;11.38;;;2.67;;
67762;SDS011;54566;52.022;5.582;2022-10-24T00:28:41;7.53;;;3.10;;
67762;SDS011;54566;52.022;5.582;2022-10-24T00:31:12;13.85;;;3.70;;
67762;SDS011;54566;52.022;5.582;2022-10-24T00:33:38;8.90;;;2.78;;
67762;SDS011;54566;52.022;5.582;2022-10-24T00:36:04;12.57;;;2.30;;
67762;SDS011;54566;52.022;5.582;2022-10-24T00:38:34;16.52;;;2.75;;
67762;SDS011;54566;52.022;5.582;2022-10-24T00:41:00;15.13;;;3.13;;
67762;SDS011;54566;52.022;5.582;2022-10-24T00:43:26;17.30;;;2.97;;
67762;SDS011;54566;52.022;5.582;2022-10-24T00:45:53;9.75;;;2.95;;
67762;SDS011;54566;52.022;5.582;2022-10-24T00:50:56;10.98;;;2.55;;
67762;SDS011;54566;52.022;5.582;2022-10-24T00:53:22;10.88;;;2.85;;
67762;SDS011;54566;52.022;5.582;2022-10-24T00:55:54;15.63;;;2.83;;
67762;SDS011;54566;52.022;5.582;2022-10-24T00:58:22;8.95;;;2.40;;
67762;SDS011;54566;52.022;5.582;2022-10-24T01:00:49;11.90;;;2.75;;
67762;SDS011;54566;52.022;5.582;2022-10-24T01:03:15;8.88;;;2.97;;
67762;SDS011;54566;52.022;5.582;2022-10-24T01:08:23;9.48;;;2.40;;
67762;SDS011;54566;52.022;5.582;2022-10-24T01:13:39;12.57;;;2.28;;
67762;SDS011;54566;52.022;5.582;2022-10-24T01:16:55;8.25;;;2.35;;
67762;SDS011;54566;52.022;5.582;2022-10-24T01:21:30;9.30;;;2.05;;
67762;SDS011;54566;52.022;5.582;2022-10-24T01:29:14;13.23;;;2.40;;
67762;SDS011;54566;52.022;5.582;2022-10-24T01:31:44;8.32;;;1.92;;
67762;SDS011;54566;52.022;5.582;2022-10-24T01:34:39;9.40;;;2.10;;
67762;SDS011;54566;52.022;5.582;2022-10-24T01:37:02;21.65;;;1.98;;
67762;SDS011;54566;52.022;5.582;2022-10-24T01:39:32;8.05;;;1.90;;
67762;SDS011;54566;52.022;5.582;2022-10-24T01:41:59;7.03;;;2.22;;
67762;SDS011;54566;52.022;5.582;2022-10-24T01:44:28;16.52;;;2.72;;
67762;SDS011;54566;52.022;5.582;2022-10-24T01:46:56;10.77;;;2.40;;
67762;SDS011;54566;52.022;5.582;2022-10-24T01:49:26;8.02;;;2.20;;
67762;SDS011;54566;52.022;5.582;2022-10-24T01:51:55;8.75;;;1.95;;
67762;SDS011;54566;52.022;5.582;2022-10-24T01:54:22;10.27;;;2.00;;
67762;SDS011;54566;52.022;5.582;2022-10-24T01:56:48;11.85;;;2.17;;
67762;SDS011;54566;52.022;5.582;2022-10-24T02:01:58;11.10;;;2.55;;
67762;SDS011;54566;52.022;5.582;2022-10-24T02:04:25;12.25;;;2.13;;
67762;SDS011;54566;52.022;5.582;2022-10-24T02:06:53;21.95;;;2.40;;
67762;SDS011;54566;52.022;5.582;2022-10-24T02:09:20;18.88;;;2.20;;
67762;SDS011;54566;52.022;5.582;2022-10-24T02:11:48;10.73;;;2.67;;
67762;SDS011;54566;52.022;5.582;2022-10-24T02:14:20;11.32;;;2.58;;
67762;SDS011;54566;52.022;5.582;2022-10-24T02:16:48;6.22;;;2.00;;
67762;SDS011;54566;52.022;5.582;2022-10-24T02:19:14;6.47;;;2.25;;
67762;SDS011;54566;52.022;5.582;2022-10-24T02:21:41;7.15;;;1.95;;
67762;SDS011;54566;52.022;5.582;2022-10-24T02:24:17;9.45;;;2.30;;
67762;SDS011;54566;52.022;5.582;2022-10-24T02:29:15;8.30;;;2.25;;
67762;SDS011;54566;52.022;5.582;2022-10-24T02:31:43;10.32;;;2.15;;
67762;SDS011;54566;52.022;5.582;2022-10-24T02:34:11;7.90;;;2.13;;
67762;SDS011;54566;52.022;5.582;2022-10-24T02:36:38;7.72;;;2.28;;
67762;SDS011;54566;52.022;5.582;2022-10-24T02:39:06;8.07;;;2.30;;
67762;SDS011;54566;52.022;5.582;2022-10-24T02:41:34;6.35;;;1.83;;
67762;SDS011;54566;52.022;5.582;2022-10-24T02:44:01;10.02;;;2.58;;
67762;SDS011;54566;52.022;5.582;2022-10-24T02:46:28;8.15;;;1.88;;
67762;SDS011;54566;52.022;5.582;2022-10-24T02:48:56;14.65;;;2.05;;
67762;SDS011;54566;52.022;5.582;2022-10-24T02:51:24;8.38;;;1.92;;
67762;SDS011;54566;52.022;5.582;2022-10-24T02:53:51;8.73;;;1.90;;
67762;SDS011;54566;52.022;5.582;2022-10-24T02:56:18;8.10;;;1.60;;
67762;SDS011;54566;52.022;5.582;2022-10-24T02:58:44;10.55;;;2.10;;
67762;SDS011;54566;52.022;5.582;2022-10-24T03:01:10;6.45;;;1.80;;
67762;SDS011;54566;52.022;5.582;2022-10-24T03:03:36;14.40;;;2.20;;
67762;SDS011;54566;52.022;5.582;2022-10-24T03:06:02;13.13;;;2.25;;
67762;SDS011;54566;52.022;5.582;2022-10-24T03:08:29;7.22;;;1.85;;
67762;SDS011;54566;52.022;5.582;2022-10-24T03:10:55;7.05;;;1.85;;
67762;SDS011;54566;52.022;5.582;2022-10-24T03:13:21;8.95;;;1.95;;
67762;SDS011;54566;52.022;5.582;2022-10-24T03:15:47;6.75;;;2.00;;
67762;SDS011;54566;52.022;5.582;2022-10-24T03:18:13;8.77;;;1.65;;
67762;SDS011;54566;52.022;5.582;2022-10-24T03:20:40;7.50;;;1.60;;
67762;SDS011;54566;52.022;5.582;2022-10-24T03:23:06;6.90;;;1.67;;
67762;SDS011;54566;52.022;5.582;2022-10-24T03:25:33;6.30;;;1.80;;
67762;SDS011;54566;52.022;5.582;2022-10-24T03:27:59;6.38;;;1.83;;
67762;SDS011;54566;52.022;5.582;2022-10-24T03:30:25;6.78;;;1.80;;
67762;SDS011;54566;52.022;5.582;2022-10-24T03:32:51;6.53;;;1.60;;
67762;SDS011;54566;52.022;5.582;2022-10-24T03:35:17;9.68;;;1.90;;
67762;SDS011;54566;52.022;5.582;2022-10-24T03:37:43;12.85;;;1.75;;
67762;SDS011;54566;52.022;5.582;2022-10-24T03:40:09;7.50;;;1.92;;
67762;SDS011;54566;52.022;5.582;2022-10-24T03:42:35;7.03;;;1.38;;
67762;SDS011;54566;52.022;5.582;2022-10-24T03:45:02;6.47;;;1.50;;
67762;SDS011;54566;52.022;5.582;2022-10-24T03:47:28;10.15;;;1.50;;
67762;SDS011;54566;52.022;5.582;2022-10-24T03:49:54;11.85;;;1.70;;
67762;SDS011;54566;52.022;5.582;2022-10-24T03:52:20;14.32;;;1.77;;
67762;SDS011;54566;52.022;5.582;2022-10-24T03:54:46;8.90;;;1.48;;
67762;SDS011;54566;52.022;5.582;2022-10-24T03:57:12;10.07;;;1.40;;
67762;SDS011;54566;52.022;5.582;2022-10-24T03:59:40;7.10;;;1.25;;
67762;SDS011;54566;52.022;5.582;2022-10-24T04:02:06;9.65;;;1.83;;
67762;SDS011;54566;52.022;5.582;2022-10-24T04:04:33;9.80;;;1.33;;
67762;SDS011;54566;52.022;5.582;2022-10-24T04:06:59;14.10;;;2.58;;
67762;SDS011;54566;52.022;5.582;2022-10-24T04:09:25;5.30;;;1.52;;
67762;SDS011;54566;52.022;5.582;2022-10-24T04:11:51;14.68;;;1.55;;
67762;SDS011;54566;52.022;5.582;2022-10-24T04:14:18;7.90;;;1.30;;
67762;SDS011;54566;52.022;5.582;2022-10-24T04:16:45;6.90;;;1.80;;
67762;SDS011;54566;52.022;5.582;2022-10-24T04:19:11;11.77;;;1.42;;
67762;SDS011;54566;52.022;5.582;2022-10-24T04:21:38;8.63;;;1.60;;
67762;SDS011;54566;52.022;5.582;2022-10-24T04:24:04;10.65;;;1.52;;
67762;SDS011;54566;52.022;5.582;2022-10-24T04:26:33;8.90;;;1.45;;
67762;SDS011;54566;52.022;5.582;2022-10-24T04:28:59;8.90;;;1.23;;
67762;SDS011;54566;52.022;5.582;2022-10-24T04:31:25;8.15;;;1.50;;
67762;SDS011;54566;52.022;5.582;2022-10-24T04:33:51;8.45;;;1.20;;
67762;SDS011;54566;52.022;5.582;2022-10-24T04:36:17;7.88;;;1.40;;
67762;SDS011;54566;52.022;5.582;2022-10-24T04:38:45;9.25;;;1.20;;
67762;SDS011;54566;52.022;5.582;2022-10-24T04:41:11;8.00;;;1.10;;
67762;SDS011;54566;52.022;5.582;2022-10-24T04:43:37;9.57;;;1.40;;
67762;SDS011;54566;52.022;5.582;2022-10-24T04:46:04;10.75;;;1.52;;
67762;SDS011;54566;52.022;5.582;2022-10-24T04:48:30;9.77;;;1.40;;
67762;SDS011;54566;52.022;5.582;2022-10-24T04:50:56;8.65;;;1.50;;
67762;SDS011;54566;52.022;5.582;2022-10-24T04:53:23;12.23;;;1.48;;
67762;SDS011;54566;52.022;5.582;2022-10-24T04:55:49;10.55;;;1.23;;
67762;SDS011;54566;52.022;5.582;2022-10-24T04:58:15;7.68;;;1.75;;
67762;SDS011;54566;52.022;5.582;2022-10-24T05:00:41;6.70;;;1.35;;
67762;SDS011;54566;52.022;5.582;2022-10-24T05:03:12;12.25;;;1.75;;
67762;SDS011;54566;52.022;5.582;2022-10-24T05:05:38;10.90;;;1.92;;
67762;SDS011;54566;52.022;5.582;2022-10-24T05:08:04;6.32;;;1.95;;
67762;SDS011;54566;52.022;5.582;2022-10-24T05:10:30;7.05;;;1.60;;
67762;SDS011;54566;52.022;5.582;2022-10-24T05:12:56;4.65;;;1.42;;
67762;SDS011;54566;52.022;5.582;2022-10-24T05:15:22;7.38;;;1.33;;
67762;SDS011;54566;52.022;5.582;2022-10-24T05:17:48;12.38;;;1.40;;
67762;SDS011;54566;52.022;5.582;2022-10-24T05:20:14;9.10;;;1.50;;
67762;SDS011;54566;52.022;5.582;2022-10-24T05:22:42;4.85;;;1.50;;
67762;SDS011;54566;52.022;5.582;2022-10-24T05:25:08;6.55;;;1.70;;
67762;SDS011;54566;52.022;5.582;2022-10-24T05:27:34;6.60;;;1.30;;
67762;SDS011;54566;52.022;5.582;2022-10-24T05:30:00;6.30;;;1.33;;
67762;SDS011;54566;52.022;5.582;2022-10-24T05:32:26;4.90;;;1.52;;
67762;SDS011;54566;52.022;5.582;2022-10-24T05:34:55;11.48;;;1.42;;
67762;SDS011;54566;52.022;5.582;2022-10-24T05:37:23;7.82;;;1.30;;
67762;SDS011;54566;52.022;5.582;2022-10-24T05:39:49;4.80;;;1.33;;
67762;SDS011;54566;52.022;5.582;2022-10-24T05:42:15;8.48;;;1.48;;
67762;SDS011;54566;52.022;5.582;2022-10-24T05:44:41;12.65;;;2.33;;
67762;SDS011;54566;52.022;5.582;2022-10-24T05:47:10;12.25;;;1.60;;
67762;SDS011;54566;52.022;5.582;2022-10-24T05:49:36;14.48;;;2.17;;
67762;SDS011;54566;52.022;5.582;2022-10-24T05:52:02;11.18;;;1.70;;
67762;SDS011;54566;52.022;5.582;2022-10-24T05:54:30;11.20;;;2.03;;
67762;SDS011;54566;52.022;5.582;2022-10-24T06:03:02;6.53;;;1.85;;
67762;SDS011;54566;52.022;5.582;2022-10-24T06:05:28;12.40;;;1.77;;
67762;SDS011;54566;52.022;5.582;2022-10-24T06:07:54;8.23;;;1.77;;
67762;SDS011;54566;52.022;5.582;2022-10-24T06:10:23;7.75;;;1.65;;
67762;SDS011;54566;52.022;5.582;2022-10-24T06:15:37;9.93;;;1.58;;
67762;SDS011;54566;52.022;5.582;2022-10-24T06:18:07;6.75;;;1.50;;
67762;SDS011;54566;52.022;5.582;2022-10-24T06:20:36;7.40;;;1.45;;
67762;SDS011;54566;52.022;5.582;2022-10-24T06:23:02;10.60;;;1.80;;
67762;SDS011;54566;52.022;5.582;2022-10-24T06:28:05;10.57;;;1.90;;
67762;SDS011;54566;52.022;5.582;2022-10-24T06:30:31;7.78;;;1.55;;
67762;SDS011;54566;52.022;5.582;2022-10-24T06:32:58;12.60;;;2.35;;
67762;SDS011;54566;52.022;5.582;2022-10-24T06:38:13;8.95;;;1.52;;
67762;SDS011;54566;52.022;5.582;2022-10-24T06:40:39;8.30;;;1.52;;
67762;SDS011;54566;52.022;5.582;2022-10-24T06:43:08;8.85;;;1.73;;
67762;SDS011;54566;52.022;5.582;2022-10-24T06:45:36;9.77;;;1.80;;
67762;SDS011;54566;52.022;5.582;2022-10-24T06:48:02;16.23;;;1.77;;
67762;SDS011;54566;52.022;5.582;2022-10-24T06:50:46;8.35;;;1.50;;
67762;SDS011;54566;52.022;5.582;2022-10-24T06:53:15;12.27;;;1.70;;
67762;SDS011;54566;52.022;5.582;2022-10-24T06:55:41;10.68;;;1.48;;
67762;SDS011;54566;52.022;5.582;2022-10-24T06:58:08;14.93;;;1.77;;
67762;SDS011;54566;52.022;5.582;2022-10-24T07:00:43;16.27;;;2.50;;
67762;SDS011;54566;52.022;5.582;2022-10-24T07:03:12;8.15;;;1.60;;
67762;SDS011;54566;52.022;5.582;2022-10-24T07:05:39;11.57;;;1.52;;
67762;SDS011;54566;52.022;5.582;2022-10-24T07:08:18;13.07;;;1.63;;
67762;SDS011;54566;52.022;5.582;2022-10-24T07:11:00;8.40;;;1.70;;
67762;SDS011;54566;52.022;5.582;2022-10-24T07:18:48;8.65;;;1.40;;
67762;SDS011;54566;52.022;5.582;2022-10-24T07:21:26;7.93;;;1.88;;
67762;SDS011;54566;52.022;5.582;2022-10-24T07:23:57;12.40;;;1.67;;
67762;SDS011;54566;52.022;5.582;2022-10-24T07:26:25;12.13;;;1.58;;
67762;SDS011;54566;52.022;5.582;2022-10-24T07:28:59;9.07;;;2.03;;
67762;SDS011;54566;52.022;5.582;2022-10-24T07:34:05;12.82;;;1.95;;
67762;SDS011;54566;52.022;5.582;2022-10-24T07:36:34;11.98;;;2.40;;
67762;SDS011;54566;52.022;5.582;2022-10-24T07:39:05;12.85;;;1.90;;
67762;SDS011;54566;52.022;5.582;2022-10-24T07:44:35;14.85;;;2.00;;
67762;SDS011;54566;52.022;5.582;2022-10-24T07:50:04;15.35;;;2.42;;
67762;SDS011;54566;52.022;5.582;2022-10-24T07:52:42;9.50;;;2.13;;
67762;SDS011;54566;52.022;5.582;2022-10-24T07:55:08;10.20;;;1.42;;
67762;SDS011;54566;52.022;5.582;2022-10-24T07:57:41;8.95;;;1.65;;
67762;SDS011;54566;52.022;5.582;2022-10-24T08:00:10;12.73;;;1.60;;
67762;SDS011;54566;52.022;5.582;2022-10-24T08:02:49;11.80;;;1.80;;
67762;SDS011;54566;52.022;5.582;2022-10-24T08:05:19;13.18;;;1.83;;
67762;SDS011;54566;52.022;5.582;2022-10-24T08:07:47;16.05;;;2.00;;
67762;SDS011;54566;52.022;5.582;2022-10-24T08:10:30;15.48;;;1.70;;
67762;SDS011;54566;52.022;5.582;2022-10-24T08:13:01;16.52;;;1.80;;
67762;SDS011;54566;52.022;5.582;2022-10-24T08:15:44;9.10;;;1.58;;
67762;SDS011;54566;52.022;5.582;2022-10-24T08:18:16;7.78;;;1.98;;
67762;SDS011;54566;52.022;5.582;2022-10-24T08:23:29;12.43;;;2.17;;
67762;SDS011;54566;52.022;5.582;2022-10-24T08:31:22;10.65;;;2.15;;
67762;SDS011;54566;52.022;5.582;2022-10-24T08:36:50;13.77;;;2.00;;
67762;SDS011;54566;52.022;5.582;2022-10-24T08:39:19;10.85;;;1.55;;
67762;SDS011;54566;52.022;5.582;2022-10-24T08:47:27;14.77;;;1.75;;
67762;SDS011;54566;52.022;5.582;2022-10-24T08:53:03;13.32;;;2.25;;
67762;SDS011;54566;52.022;5.582;2022-10-24T09:04:20;6.30;;;1.70;;
67762;SDS011;54566;52.022;5.582;2022-10-24T09:07:00;11.45;;;2.03;;
67762;SDS011;54566;52.022;5.582;2022-10-24T09:15:03;16.13;;;1.90;;
67762;SDS011;54566;52.022;5.582;2022-10-24T09:17:45;14.73;;;1.67;;
67762;SDS011;54566;52.022;5.582;2022-10-24T09:22:53;15.35;;;1.45;;
67762;SDS011;54566;52.022;5.582;2022-10-24T09:28:18;13.50;;;1.80;;
67762;SDS011;54566;52.022;5.582;2022-10-24T09:31:02;12.38;;;1.75;;
67762;SDS011;54566;52.022;5.582;2022-10-24T15:13:21;15.23;;;2.78;;
67762;SDS011;54566;52.022;5.582;2022-10-24T15:15:56;8.33;;;1.60;;
67762;SDS011;54566;52.022;5.582;2022-10-24T15:18:44;9.88;;;2.08;;
67762;SDS011;54566;52.022;5.582;2022-10-24T15:21:15;14.95;;;1.83;;
67762;SDS011;54566;52.022;5.582;2022-10-24T15:23:47;14.25;;;1.77;;
67762;SDS011;54566;52.022;5.582;2022-10-24T15:26:25;12.02;;;1.55;;
67762;SDS011;54566;52.022;5.582;2022-10-24T15:29:06;7.85;;;1.52;;
67762;SDS011;54566;52.022;5.582;2022-10-24T15:31:35;8.82;;;1.50;;
67762;SDS011;54566;52.022;5.582;2022-10-24T15:34:17;5.65;;;1.40;;
67762;SDS011;54566;52.022;5.582;2022-10-24T15:36:48;8.85;;;1.85;;
67762;SDS011;54566;52.022;5.582;2022-10-24T15:39:23;12.38;;;1.85;;
67762;SDS011;54566;52.022;5.582;2022-10-24T15:48:05;9.50;;;2.15;;
67762;SDS011;54566;52.022;5.582;2022-10-24T15:50:31;11.57;;;2.15;;
67762;SDS011;54566;52.022;5.582;2022-10-24T15:53:11;9.70;;;1.80;;
67762;SDS011;54566;52.022;5.582;2022-10-24T15:55:40;16.30;;;2.20;;
67762;SDS011;54566;52.022;5.582;2022-10-24T15:58:10;10.63;;;2.05;;
67762;SDS011;54566;52.022;5.582;2022-10-24T16:03:26;6.18;;;1.30;;
67762;SDS011;54566;52.022;5.582;2022-10-24T16:05:58;8.80;;;1.23;;
67762;SDS011;54566;52.022;5.582;2022-10-24T16:08:29;7.65;;;1.92;;
67762;SDS011;54566;52.022;5.582;2022-10-24T16:10:59;8.18;;;1.48;;
